Data for 03/19/2016

Time Sea-Level Adjusted Pressure Absolute Pressure Temperature Relative Humidity Dew Point   
(mb) (inHg) (mb) (inHg) (C) (F) (%) (C) (F)
00:05 1026 30.3 855 25.25 -7.2 19.1 50 -15.9 3.4
00:10 1026 30.3 855 25.25 -7.5 18.5 50 -16.3 2.7
00:15 1026 30.3 855 25.25 -7.5 18.5 50 -16.2 2.9
00:20 1025 30.27 855 25.25 -7.5 18.4 51 -16.1 3.1
00:25 1025 30.27 855 25.25 -7.6 18.4 50 -16.3 2.6
00:30 1025 30.27 855 25.25 -7.5 18.4 49 -16.6 2.1
00:35 1025 30.27 855 25.25 -7.4 18.7 49 -16.5 2.4
00:40 1025 30.27 855 25.25 -7.5 18.5 49 -16.4 2.4
00:45 1025 30.27 855 25.25 -7.6 18.3 50 -16.4 2.4
00:50 1025 30.27 855 25.25 -7.7 18.1 50 -16.4 2.6
00:55 1025 30.27 855 25.25 -7.8 18 51 -16.4 2.5
01:00 1025 30.27 855 25.25 -7.7 18.2 49 -16.6 2
01:05 1025 30.27 855 25.25 -7.6 18.2 50 -16.4 2.5
01:10 1025 30.27 855 25.25 -7.8 18.1 49 -16.7 1.9
01:15 1025 30.27 855 25.25 -7.4 18.6 48 -16.7 2
01:20 1025 30.27 855 25.25 -7.5 18.4 49 -16.4 2.4
01:25 1025 30.27 855 25.25 -7.8 18.1 50 -16.4 2.4
01:30 1025 30.27 855 25.25 -7.7 18.2 50 -16.5 2.3
01:35 1025 30.27 855 25.25 -7.7 18.1 51 -16.3 2.7
01:40 1025 30.27 855 25.25 -7.8 17.9 51 -16.3 2.6
01:45 1025 30.27 855 25.25 -7.8 17.9 51 -16.4 2.5
01:50 1025 30.27 855 25.25 -8.1 17.4 51 -16.5 2.3
01:55 1025 30.27 855 25.25 -8.1 17.3 51 -16.6 2.2
02:00 1025 30.27 855 25.25 -8 17.5 51 -16.5 2.3
02:05 1025 30.27 855 25.25 -8 17.7 49 -17 1.4
02:10 1025 30.27 855 25.25 -7.7 18.1 47 -17.1 1.2
02:15 1025 30.27 855 25.25 -7.4 18.6 47 -17 1.5
02:20 1025 30.27 855 25.25 -7.4 18.8 47 -16.8 1.8
02:25 1025 30.27 855 25.25 -7.5 18.5 48 -16.6 2.1
02:30 1025 30.27 855 25.25 -7.6 18.3 46 -17.3 0.9
02:35 1025 30.27 855 25.25 -7.5 18.5 46 -17.1 1.2
02:40 1025 30.27 855 25.25 -7.5 18.4 48 -16.9 1.6
02:45 1025 30.27 855 25.25 -7.7 18.1 48 -17 1.4
02:50 1025 30.27 855 25.25 -8 17.6 49 -17 1.5
02:55 1025 30.27 855 25.25 -8.1 17.4 49 -17 1.4
03:00 1025 30.27 855 25.25 -8.1 17.4 49 -16.9 1.5
03:05 1025 30.27 855 25.25 -8.1 17.5 49 -17.1 1.3
03:10 1025 30.27 855 25.25 -8.1 17.5 49 -16.9 1.5
03:15 1025 30.27 855 25.25 -8.2 17.2 50 -16.9 1.7
03:20 1025 30.27 855 25.25 -8.4 16.8 51 -16.8 1.8
03:25 1026 30.3 855 25.25 -8.8 16.3 53 -16.7 1.9
03:30 1026 30.3 855 25.25 -8.9 16.1 53 -16.7 2
03:35 1026 30.3 855 25.25 -8.8 16.2 53 -16.8 1.8
03:40 1026 30.3 855 25.25 -8.7 16.3 52 -16.9 1.6
03:45 1026 30.3 855 25.25 -8.8 16.1 52 -17 1.4
03:50 1026 30.3 855 25.25 -8.9 16 53 -16.9 1.6
03:55 1026 30.3 855 25.25 -9.1 15.7 51 -17.5 0.4
04:00 1026 30.3 855 25.25 -8.4 16.9 52 -16.6 2.2
04:05 1026 30.3 855 25.25 -9 15.8 54 -16.8 1.7
04:10 1026 30.3 855 25.25 -8.7 16.3 49 -17.6 0.3
04:15 1026 30.3 855 25.25 -8.2 17.3 49 -17.1 1.2
04:20 1026 30.3 855 25.25 -8.5 16.7 50 -17.3 0.9
04:25 1026 30.3 855 25.25 -8.4 16.8 50 -17.1 1.2
04:30 1026 30.3 855 25.25 -8.5 16.6 50 -17.1 1.2
04:35 1026 30.3 855 25.25 -8.6 16.6 50 -17.2 1
04:40 1026 30.3 855 25.25 -8.8 16.1 52 -16.9 1.6
04:45 1026 30.3 855 25.25 -9.1 15.6 52 -17.2 1
04:50 1026 30.3 855 25.25 -9 15.7 52 -17.1 1.2
04:55 1026 30.3 855 25.25 -9.2 15.4 53 -17.1 1.2
05:00 1026 30.3 855 25.25 -9.3 15.3 53 -17.2 1.1
05:05 1026 30.3 855 25.25 -9.4 15.1 54 -17.1 1.2
05:10 1026 30.3 855 25.25 -9.5 14.8 54 -17.3 0.8
05:15 1026 30.3 855 25.25 -9.5 14.9 53 -17.4 0.8
05:20 1026 30.3 855 25.25 -9.4 15.1 53 -17.3 0.9
05:25 1026 30.3 855 25.25 -9.2 15.5 53 -17.2 1
05:30 1026 30.3 855 25.25 -9.1 15.7 51 -17.4 0.7
05:35 1026 30.3 855 25.25 -9 15.7 52 -17.3 0.8
05:40 1026 30.3 855 25.25 -9 15.8 51 -17.3 0.8
05:45 1026 30.3 855 25.25 -9.3 15.2 52 -17.4 0.6
05:50 1026 30.3 855 25.25 -9.6 14.7 55 -17.1 1.2
05:55 1026 30.3 855 25.25 -9.9 14.1 56 -17.1 1.2
06:00 1026 30.3 855 25.25 -9.4 15.1 51 -17.8 -0.1
06:05 1026 30.3 855 25.25 -8.9 16 50 -17.4 0.6
06:10 1026 30.3 855 25.25 -9.1 15.5 51 -17.4 0.6
06:15 1026 30.3 855 25.25 -9.2 15.4 52 -17.4 0.7
06:20 1026 30.3 855 25.25 -9.3 15.2 52 -17.4 0.7
06:25 1026 30.3 856 25.28 -9.3 15.3 52 -17.5 0.5
06:30 1026 30.3 856 25.28 -9.2 15.4 50 -17.8 -0
06:35 1026 30.3 856 25.28 -9.1 15.7 50 -17.7 0.1
06:40 1026 30.3 856 25.28 -9.1 15.6 50 -17.7 0.2
06:45 1026 30.3 856 25.28 -8.8 16.1 47 -18.1 -0.7
06:50 1026 30.3 856 25.28 -8.5 16.8 46 -18.1 -0.6
06:55 1026 30.3 856 25.28 -8.2 17.2 46 -17.8 -0.1
07:00 1026 30.3 856 25.28 -8.5 16.7 48 -17.7 0.1
07:05 1026 30.3 855 25.25 -8.7 16.3 49 -17.7 0.2
07:10 1026 30.3 856 25.28 -8.7 16.3 48 -17.9 -0.3
07:15 1026 30.3 856 25.28 -8.5 16.7 47 -18 -0.3
07:20 1026 30.3 855 25.25 -8.2 17.3 46 -17.8 0
07:25 1026 30.3 855 25.25 -7.9 17.7 45 -17.8 -0
07:30 1026 30.3 855 25.25 -7.6 18.3 44 -17.9 -0.2
07:35 1026 30.3 855 25.25 -7.3 19 43 -17.9 -0.3
07:40 1026 30.3 855 25.25 -7 19.3 41 -18.1 -0.5
07:45 1026 30.3 855 25.25 -6.9 19.6 41 -18.1 -0.5
07:50 1026 30.3 855 25.25 -6.7 19.9 41 -17.8 -0.1
07:55 1026 30.3 855 25.25 -6.9 19.6 43 -17.4 0.7
08:00 1026 30.3 855 25.25 -6.8 19.8 42 -17.8 0
08:05 1026 30.3 855 25.25 -6.5 20.4 41 -17.5 0.4
08:10 1026 30.3 855 25.25 -6.2 20.8 41 -17.6 0.3
08:15 1026 30.3 855 25.25 -6 21.2 41 -17.2 1
08:20 1026 30.3 855 25.25 -5.8 21.6 41 -17.1 1.2
08:25 1026 30.3 855 25.25 -5.3 22.4 40 -16.9 1.6
08:30 1026 30.3 855 25.25 -5.4 22.3 40 -17.1 1.2
08:35 1026 30.3 855 25.25 -5.1 22.8 38 -17.4 0.8
08:40 1026 30.3 855 25.25 -4.8 23.4 38 -17.2 1.1
08:45 1026 30.3 855 25.25 -4.3 24.2 34 -17.8 -0.1
08:50 1026 30.3 855 25.25 -3.3 26 32 -17.8 -0.1
08:55 1026 30.3 855 25.25 -2.9 26.7 32 -17.3 0.8
09:00 1026 30.3 855 25.25 -2.6 27.3 31 -17.4 0.7
09:05 1026 30.3 856 25.28 -2.7 27.1 32 -17.3 0.9
09:10 1026 30.3 856 25.28 -3 26.6 33 -17.3 0.8
09:15 1026 30.3 856 25.28 -2.3 27.9 31 -17.3 0.9
09:20 1026 30.3 856 25.28 -2.4 27.8 34 -16.4 2.5
09:25 1026 30.3 856 25.28 -2.3 27.9 33 -16.7 2
09:30 1026 30.3 856 25.28 -2.3 27.8 32 -17 1.4
09:35 1026 30.3 855 25.25 -2.5 27.5 33 -16.8 1.7
09:40 1026 30.3 856 25.28 -2.1 28.3 31 -17.1 1.3
09:45 1026 30.3 856 25.28 -2.6 27.3 29 -18.2 -0.8
09:50 1026 30.3 856 25.28 -2.6 27.3 30 -17.8 -0.1
09:55 1026 30.3 856 25.28 -2.2 28 31 -17.1 1.2
10:00 1026 30.3 856 25.28 -1.4 29.5 29 -17.1 1.3
10:05 1026 30.3 856 25.28 -1 30.3 29 -16.9 1.6
10:10 1026 30.3 856 25.28 -1 30.2 30 -16.6 2.1
10:15 1026 30.3 856 25.28 -0.7 30.7 28 -17 1.4
10:20 1026 30.3 856 25.28 0.5 32.9 24 -18 -0.5
10:25 1026 30.3 856 25.28 0.7 33.3 25 -17.2 1
10:30 1026 30.3 855 25.25 0.5 32.9 26 -16.9 1.5
10:35 1026 30.3 855 25.25 1.5 34.7 23 -17.6 0.3
10:40 1026 30.3 855 25.25 0.9 33.6 21 -19.2 -2.6
10:45 1026 30.3 855 25.25 1 33.7 22 -18.3 -1
10:50 1026 30.3 855 25.25 1.4 34.6 22 -18 -0.4
10:55 1026 30.3 855 25.25 1.2 34.2 22 -18.6 -1.4
11:00 1026 30.3 855 25.25 1.3 34.3 22 -18.3 -1
11:05 1026 30.3 855 25.25 1.5 34.8 22 -18 -0.4
11:10 1026 30.3 855 25.25 2.1 35.7 19 -19.3 -2.8
11:15 1026 30.3 855 25.25 2.4 36.3 20 -18.3 -1
11:20 1026 30.3 855 25.25 3.2 37.8 22 -16.4 2.5
11:25 1026 30.3 855 25.25 3.5 38.4 22 -16.3 2.6
11:30 1026 30.3 855 25.25 2.9 37.3 22 -17 1.4
11:35 1025 30.27 855 25.25 2.7 36.9 23 -16.4 2.4
11:40 1025 30.27 855 25.25 2.9 37.2 23 -16.4 2.6
11:45 1025 30.27 855 25.25 3.7 38.7 22 -16.2 2.8
11:50 1025 30.27 855 25.25 4.3 39.7 20 -16.7 2
11:55 1025 30.27 855 25.25 4.6 40.4 19 -17 1.4
12:00 1025 30.27 855 25.25 4.8 40.6 18 -17.8 -0
12:05 1025 30.27 854 25.22 4.8 40.6 18 -17.8 -0.1
12:10 1025 30.27 854 25.22 5 40.9 17 -18.1 -0.6
12:15 1025 30.27 854 25.22 5 41 18 -17.5 0.5
12:20 1025 30.27 854 25.22 5.4 41.6 18 -17.3 0.9
12:25 1025 30.27 854 25.22 4.8 40.7 19 -16.9 1.5
12:30 1025 30.27 854 25.22 4.3 39.8 19 -17.4 0.7
12:35 1025 30.27 854 25.22 3.9 39.1 20 -17.4 0.7
12:40 1025 30.27 854 25.22 3.9 39.1 17 -18.8 -1.9
12:45 1025 30.27 854 25.22 4.8 40.7 18 -17.6 0.3
12:50 1025 30.27 854 25.22 6 42.8 15 -18.6 -1.6
12:55 1025 30.27 854 25.22 6.8 44.2 15 -18.4 -1
13:00 1025 30.27 854 25.22 6.7 44 14 -19.1 -2.4
13:05 1025 30.27 854 25.22 5.4 41.7 18 -17.3 0.9
13:10 1025 30.27 854 25.22 5.2 41.3 17 -17.9 -0.3
13:15 1025 30.27 854 25.22 6.2 43.1 15 -18.8 -1.8
13:20 1024 30.24 854 25.22 6.1 43 15 -18.7 -1.6
13:25 1024 30.24 854 25.22 6.4 43.6 14 -19 -2.2
13:30 1024 30.24 853 25.19 6.8 44.3 18 -16 3.2
13:35 1024 30.24 853 25.19 6.4 43.5 15 -18.4 -1.1
13:40 1024 30.24 853 25.19 6.9 44.5 14 -18.8 -1.8
13:45 1024 30.24 853 25.19 7 44.7 14 -18.7 -1.6
13:50 1024 30.24 853 25.19 7.6 45.7 14 -18 -0.5
13:55 1024 30.24 853 25.19 7.9 46.1 13 -18.7 -1.7
14:00 1024 30.24 853 25.19 8 46.3 13 -18.8 -1.9
14:05 1024 30.24 853 25.19 7.7 45.8 13 -18.8 -1.9
14:10 1024 30.24 853 25.19 7.5 45.5 13 -19.2 -2.6
14:15 1024 30.24 853 25.19 6.5 43.8 13 -20.2 -4.4
14:20 1024 30.24 853 25.19 6.6 43.8 14 -19.2 -2.6
14:25 1024 30.24 853 25.19 7 44.6 14 -18.9 -2.1
14:30 1024 30.24 853 25.19 7.6 45.6 13 -19.1 -2.5
14:35 1024 30.24 853 25.19 8.2 46.8 13 -18.4 -1.1
14:40 1024 30.24 853 25.19 8.5 47.3 13 -18.5 -1.3
14:45 1023 30.21 853 25.19 8.7 47.6 13 -18.4 -1.2
14:50 1023 30.21 853 25.19 8.6 47.4 13 -18.3 -1
14:55 1023 30.21 853 25.19 8.9 47.9 13 -18.4 -1.1
15:00 1023 30.21 853 25.19 8.9 48.1 13 -18.5 -1.3
15:05 1023 30.21 853 25.19 9.1 48.4 12 -18.5 -1.3
15:10 1023 30.21 852 25.16 9.5 49 12 -19.2 -2.5
15:15 1023 30.21 852 25.16 9.2 48.6 11 -20.2 -4.4
15:20 1023 30.21 852 25.16 8.7 47.7 11 -20.2 -4.3
15:25 1023 30.21 852 25.16 8.7 47.7 11 -20.5 -4.9
15:30 1023 30.21 852 25.16 8.4 47.1 12 -19.2 -2.6
15:35 1023 30.21 852 25.16 8.3 46.9 11 -20.3 -4.5
15:40 1023 30.21 852 25.16 8.2 46.8 10 -22.3 -8.2
15:45 1023 30.21 852 25.16 8 46.3 10 -21.5 -6.7
15:50 1023 30.21 852 25.16 8.6 47.5 10 -22 -7.7
15:55 1023 30.21 852 25.16 9.2 48.6 9 -22.1 -7.8
16:00 1023 30.21 852 25.16 9.7 49.4 9 -21.8 -7.2
16:05 1023 30.21 852 25.16 9.7 49.4 9 -21.4 -6.5
16:10 1023 30.21 852 25.16 8.8 47.8 10 -21.1 -6
16:15 1023 30.21 852 25.16 9.5 49.1 9 -21.5 -6.7
16:20 1023 30.21 852 25.16 10 49.9 10 -20.5 -4.9
16:25 1023 30.21 852 25.16 10.2 50.4 9 -21.2 -6.1
16:30 1023 30.21 852 25.16 10.2 50.3 10 -20.6 -5.1
16:35 1023 30.21 852 25.16 9.6 49.4 10 -21.3 -6.3
16:40 1023 30.21 852 25.16 9.1 48.4 10 -21.3 -6.4
16:45 1023 30.21 852 25.16 9.7 49.4 10 -21.1 -6
16:50 1023 30.21 852 25.16 9.8 49.7 9 -21.4 -6.5
16:55 1023 30.21 852 25.16 9.9 49.8 10 -21.1 -6
17:00 1023 30.21 852 25.16 10.1 50.3 9 -21.5 -6.7
17:05 1023 30.21 852 25.16 10.2 50.4 9 -21.2 -6.1
17:10 1022 30.18 852 25.16 10 49.9 9 -21.5 -6.6
17:15 1022 30.18 852 25.16 9.7 49.5 9 -21.7 -7
17:20 1022 30.18 852 25.16 9.7 49.5 9 -22.2 -7.9
17:25 1022 30.18 852 25.16 9.8 49.7 9 -21.8 -7.3
17:30 1022 30.18 852 25.16 9.7 49.5 9 -22.2 -8
17:35 1022 30.18 851 25.13 9.3 48.7 9 -22.4 -8.3
17:40 1022 30.18 851 25.13 9.2 48.6 9 -21.7 -7
17:45 1022 30.18 851 25.13 9.1 48.4 11 -19.6 -3.3
17:50 1022 30.18 851 25.13 8.5 47.3 13 -18.6 -1.5
17:55 1022 30.18 851 25.13 8.2 46.7 13 -18.4 -1.1
18:00 1022 30.18 851 25.13 8 46.4 13 -19 -2.2
18:05 1022 30.18 851 25.13 7.8 46.1 14 -18 -0.4
18:10 1022 30.18 851 25.13 7.7 45.8 13 -19 -2.1
18:15 1022 30.18 851 25.13 7.4 45.3 14 -18.8 -1.9
18:20 1022 30.18 851 25.13 7.3 45.2 14 -18.7 -1.7
18:25 1022 30.18 851 25.13 7.1 44.7 14 -18.8 -1.9
18:30 1022 30.18 851 25.13 6.9 44.4 14 -18.5 -1.4
18:35 1022 30.18 851 25.13 6.6 43.8 16 -18 -0.3
18:40 1022 30.18 851 25.13 6.4 43.5 17 -17.3 0.8
18:45 1022 30.18 851 25.13 6.3 43.3 21 -14.6 5.7
18:50 1022 30.18 851 25.13 5.8 42.5 24 -13.4 7.8
18:55 1022 30.18 851 25.13 5.1 41.1 27 -12.6 9.2
19:00 1022 30.18 851 25.13 4.3 39.8 28 -12.5 9.5
19:05 1022 30.18 851 25.13 4 39.1 30 -12.3 9.9
19:10 1022 30.18 851 25.13 3.8 38.8 31 -11.8 10.7
19:15 1022 30.18 851 25.13 3.2 37.7 34 -11.3 11.7
19:20 1022 30.18 851 25.13 2.7 36.9 35 -11.2 11.8
19:25 1022 30.18 851 25.13 2.6 36.8 34 -11.6 11.1
19:30 1022 30.18 851 25.13 2.6 36.6 33 -12.2 10
19:35 1022 30.18 851 25.13 2.9 37.2 33 -11.7 10.9
19:40 1022 30.18 851 25.13 2.8 37.1 35 -11.2 11.9
19:45 1022 30.18 851 25.13 2.7 36.8 34 -11.7 10.9
19:50 1022 30.18 851 25.13 2.5 36.4 37 -11 12.3
19:55 1022 30.18 851 25.13 2.4 36.2 36 -11.4 11.4
20:00 1022 30.18 851 25.13 2.4 36.4 35 -11.7 10.9
20:05 1022 30.18 851 25.13 2.6 36.6 33 -12 10.4
20:10 1022 30.18 851 25.13 2.6 36.8 34 -11.9 10.6
20:15 1022 30.18 851 25.13 2.4 36.3 37 -11 12.3
20:20 1022 30.18 851 25.13 2.1 35.8 36 -11.4 11.4
20:25 1022 30.18 851 25.13 2.2 35.9 35 -11.9 10.5
20:30 1022 30.18 851 25.13 2.3 36.1 35 -11.5 11.3
20:35 1022 30.18 851 25.13 2.3 36.1 35 -11.7 10.9
20:40 1022 30.18 851 25.13 2.1 35.8 37 -11 12.3
20:45 1022 30.18 851 25.13 1.5 34.8 42 -10 13.9
20:50 1022 30.18 851 25.13 1.2 34.2 40 -10.8 12.6
20:55 1022 30.18 851 25.13 1.5 34.7 39 -10.9 12.4
21:00 1022 30.18 851 25.13 1.4 34.6 41 -10.5 13.1
21:05 1022 30.18 851 25.13 1.3 34.3 41 -10.4 13.2
21:10 1022 30.18 851 25.13 1.5 34.6 40 -10.8 12.5
21:15 1022 30.18 851 25.13 1.8 35.2 37 -11.3 11.7
21:20 1022 30.18 851 25.13 1.9 35.4 37 -11.4 11.6
21:25 1022 30.18 851 25.13 1.6 35 36 -11.9 10.6
21:30 1022 30.18 851 25.13 1.2 34.2 41 -10.7 12.8
21:35 1022 30.18 851 25.13 1 33.9 39 -11.6 11.1
21:40 1022 30.18 851 25.13 1.3 34.3 39 -11.3 11.7
21:45 1022 30.18 851 25.13 1.3 34.3 40 -10.8 12.6
21:50 1022 30.18 851 25.13 0.9 33.7 42 -10.7 12.7
21:55 1022 30.18 851 25.13 0.9 33.6 41 -11 12.2
22:00 1022 30.18 851 25.13 1 33.8 40 -11.2 11.9
22:05 1022 30.18 851 25.13 0.9 33.6 40 -11.2 11.8
22:10 1022 30.18 851 25.13 1.1 33.9 40 -11.2 11.8
22:15 1022 30.18 851 25.13 1.1 34 40 -11.1 12
22:20 1022 30.18 851 25.13 0.9 33.7 41 -10.9 12.3
22:25 1022 30.18 851 25.13 0.7 33.2 41 -11 12.2
22:30 1022 30.18 851 25.13 0.3 32.6 43 -10.8 12.6
22:35 1022 30.18 851 25.13 0.9 33.6 39 -11.7 10.9
22:40 1022 30.18 851 25.13 1.4 34.5 37 -11.9 10.5
22:45 1022 30.18 851 25.13 1.5 34.7 36 -11.9 10.5
22:50 1022 30.18 851 25.13 1.3 34.4 37 -11.7 10.9
22:55 1022 30.18 851 25.13 1.1 33.9 39 -11.4 11.5
23:00 1022 30.18 851 25.13 0.8 33.4 40 -11.3 11.7
23:05 1022 30.18 851 25.13 0.5 32.8 41 -11.4 11.5
23:10 1022 30.18 851 25.13 0.6 33.1 39 -11.8 10.8
23:15 1022 30.18 851 25.13 0.5 33 40 -11.5 11.4
23:20 1022 30.18 851 25.13 0.5 32.8 40 -11.6 11.1
23:25 1022 30.18 851 25.13 0.5 33 40 -11.6 11.1
23:30 1022 30.18 851 25.13 0.4 32.7 41 -11.5 11.3
23:35 1022 30.18 851 25.13 0.3 32.6 40 -11.8 10.7
23:40 1022 30.18 851 25.13 0.4 32.6 40 -11.7 11
23:45 1022 30.18 851 25.13 0.4 32.7 39 -12 10.4
23:50 1022 30.18 851 25.13 0.5 32.9 39 -12 10.4
23:55 1022 30.18 851 25.13 0.5 32.9 39 -12 10.3
24:00 1022 30.18 851 25.13 0.4 32.8 40 -11.8 10.8